Aviation Digital Data Service (ADDS)

Output produced by METARs form (1857 UTC 19 April 2019)
found at http://www.aviationweather.gov/metar/data/
 
METAR text: RKSS 191800Z 17004KT 150V210 CAVOK 10/06 Q1016 NOSIG
Conditions at: RKSS (SEOUL/KIMPO INTL, KR) observed 1800 UTC 19 April 2019
Temperature: 10.0°C (50°F)
Dewpoint: 6.0°C (43°F) [RH = 76%]
Pressure (altimeter): 30.00 inches Hg (1016.0 mb)
Winds: from the S (170 degrees) at 5 MPH (4 knots; 2.1 m/s)
Visibility: 6 or more miles (10+ km)
Ceiling: ceiling and visibility are OK
Clouds: unknown
Weather: no significant weather observed at this time

METAR text: RKSS 191700Z 16005KT CAVOK 12/06 Q1016 NOSIG
Conditions at: RKSS (SEOUL/KIMPO INTL, KR) observed 1700 UTC 19 April 2019
Temperature: 12.0°C (54°F)
Dewpoint: 6.0°C (43°F) [RH = 67%]
Pressure (altimeter): 30.00 inches Hg (1016.0 mb)
Winds: from the SSE (160 degrees) at 6 MPH (5 knots; 2.6 m/s)
Visibility: 6 or more miles (10+ km)
Ceiling: ceiling and visibility are OK
Clouds: unknown
Weather: no significant weather observed at this time

METAR text: RKSS 191600Z 13006KT CAVOK 10/06 Q1016 NOSIG
Conditions at: RKSS (SEOUL/KIMPO INTL, KR) observed 1600 UTC 19 April 2019
Temperature: 10.0°C (50°F)
Dewpoint: 6.0°C (43°F) [RH = 76%]
Pressure (altimeter): 30.00 inches Hg (1016.0 mb)
Winds: from the SE (130 degrees) at 7 MPH (6 knots; 3.1 m/s)
Visibility: 6 or more miles (10+ km)
Ceiling: ceiling and visibility are OK
Clouds: unknown
Weather: no significant weather observed at this time

METAR text: RKSS 191500Z 15003KT CAVOK 11/07 Q1017 NOSIG
Conditions at: RKSS (SEOUL/KIMPO INTL, KR) observed 1500 UTC 19 April 2019
Temperature: 11.0°C (52°F)
Dewpoint: 7.0°C (45°F) [RH = 76%]
Pressure (altimeter): 30.03 inches Hg (1017.0 mb)
Winds: from the SSE (150 degrees) at 3 MPH (3 knots; 1.5 m/s)
Visibility: 6 or more miles (10+ km)
Ceiling: ceiling and visibility are OK
Clouds: unknown
Weather: no significant weather observed at this time

METAR text: RKSS 191400Z 17006KT CAVOK 13/07 Q1016 NOSIG
Conditions at: RKSS (SEOUL/KIMPO INTL, KR) observed 1400 UTC 19 April 2019
Temperature: 13.0°C (55°F)
Dewpoint: 7.0°C (45°F) [RH = 67%]
Pressure (altimeter): 30.00 inches Hg (1016.0 mb)
Winds: from the S (170 degrees) at 7 MPH (6 knots; 3.1 m/s)
Visibility: 6 or more miles (10+ km)
Ceiling: ceiling and visibility are OK
Clouds: unknown
Weather: no significant weather observed at this time

METAR text: RKSS 191300Z 17004KT CAVOK 13/07 Q1017 NOSIG
Conditions at: RKSS (SEOUL/KIMPO INTL, KR) observed 1300 UTC 19 April 2019
Temperature: 13.0°C (55°F)
Dewpoint: 7.0°C (45°F) [RH = 67%]
Pressure (altimeter): 30.03 inches Hg (1017.0 mb)
Winds: from the S (170 degrees) at 5 MPH (4 knots; 2.1 m/s)
Visibility: 6 or more miles (10+ km)
Ceiling: ceiling and visibility are OK
Clouds: unknown
Weather: no significant weather observed at this time

METAR text: RKSS 191200Z 16006KT CAVOK 15/07 Q1016 NOSIG
Conditions at: RKSS (SEOUL/KIMPO INTL, KR) observed 1200 UTC 19 April 2019
Temperature: 15.0°C (59°F)
Dewpoint: 7.0°C (45°F) [RH = 59%]
Pressure (altimeter): 30.00 inches Hg (1016.0 mb)
Winds: from the SSE (160 degrees) at 7 MPH (6 knots; 3.1 m/s)
Visibility: 6 or more miles (10+ km)
Ceiling: ceiling and visibility are OK
Clouds: unknown
Weather: no significant weather observed at this time

METAR text: RKSS 191100Z 16007KT CAVOK 16/06 Q1015 NOSIG
Conditions at: RKSS (SEOUL/KIMPO INTL, KR) observed 1100 UTC 19 April 2019
Temperature: 16.0°C (61°F)
Dewpoint: 6.0°C (43°F) [RH = 51%]
Pressure (altimeter): 29.97 inches Hg (1015.0 mb)
Winds: from the SSE (160 degrees) at 8 MPH (7 knots; 3.6 m/s)
Visibility: 6 or more miles (10+ km)
Ceiling: ceiling and visibility are OK
Clouds: unknown
Weather: no significant weather observed at this time

METAR text: RKSS 191000Z 13005KT 100V160 CAVOK 17/05 Q1014 NOSIG
Conditions at: RKSS (SEOUL/KIMPO INTL, KR) observed 1000 UTC 19 April 2019
Temperature: 17.0°C (63°F)
Dewpoint: 5.0°C (41°F) [RH = 45%]
Pressure (altimeter): 29.94 inches Hg (1014.0 mb)
Winds: from the SE (130 degrees) at 6 MPH (5 knots; 2.6 m/s)
Visibility: 6 or more miles (10+ km)
Ceiling: ceiling and visibility are OK
Clouds: unknown
Weather: no significant weather observed at this time

METAR text: RKSS 190900Z 11002KT CAVOK 19/05 Q1014 NOSIG
Conditions at: RKSS (SEOUL/KIMPO INTL, KR) observed 0900 UTC 19 April 2019
Temperature: 19.0°C (66°F)
Dewpoint: 5.0°C (41°F) [RH = 40%]
Pressure (altimeter): 29.94 inches Hg (1014.0 mb)
Winds: from the ESE (110 degrees) at 2 MPH (2 knots; 1.0 m/s)
Visibility: 6 or more miles (10+ km)
Ceiling: ceiling and visibility are OK
Clouds: unknown
Weather: no significant weather observed at this time

METAR text: RKSS 190800Z 05003KT 360V110 CAVOK 19/04 Q1014 NOSIG
Conditions at: RKSS (SEOUL/KIMPO INTL, KR) observed 0800 UTC 19 April 2019
Temperature: 19.0°C (66°F)
Dewpoint: 4.0°C (39°F) [RH = 37%]
Pressure (altimeter): 29.94 inches Hg (1014.0 mb)
Winds: from the NE (50 degrees) at 3 MPH (3 knots; 1.5 m/s)
Visibility: 6 or more miles (10+ km)
Ceiling: ceiling and visibility are OK
Clouds: unknown
Weather: no significant weather observed at this time

METAR text: RKSS 190700Z 15006KT 110V190 CAVOK 19/05 Q1015 NOSIG
Conditions at: RKSS (SEOUL/KIMPO INTL, KR) observed 0700 UTC 19 April 2019
Temperature: 19.0°C (66°F)
Dewpoint: 5.0°C (41°F) [RH = 40%]
Pressure (altimeter): 29.97 inches Hg (1015.0 mb)
Winds: from the SSE (150 degrees) at 7 MPH (6 knots; 3.1 m/s)
Visibility: 6 or more miles (10+ km)
Ceiling: ceiling and visibility are OK
Clouds: unknown
Weather: no significant weather observed at this time

METAR text: RKSS 190600Z 10004KT 9999 FEW040 19/05 Q1016 NOSIG
Conditions at: RKSS (SEOUL/KIMPO INTL, KR) observed 0600 UTC 19 April 2019
Temperature: 19.0°C (66°F)
Dewpoint: 5.0°C (41°F) [RH = 40%]
Pressure (altimeter): 30.00 inches Hg (1016.0 mb)
Winds: from the E (100 degrees) at 5 MPH (4 knots; 2.1 m/s)
Visibility: 6 or more miles (10+ km)
Ceiling: at least 12,000 feet AGL
Clouds: few clouds at 4000 feet AGL
Weather: no significant weather observed at this time

METAR text: RKSS 190500Z 10006KT 050V150 CAVOK 17/05 Q1016 NOSIG
Conditions at: RKSS (SEOUL/KIMPO INTL, KR) observed 0500 UTC 19 April 2019
Temperature: 17.0°C (63°F)
Dewpoint: 5.0°C (41°F) [RH = 45%]
Pressure (altimeter): 30.00 inches Hg (1016.0 mb)
Winds: from the E (100 degrees) at 7 MPH (6 knots; 3.1 m/s)
Visibility: 6 or more miles (10+ km)
Ceiling: ceiling and visibility are OK
Clouds: unknown
Weather: no significant weather observed at this time

METAR text: RKSS 190400Z 08007KT 030V120 9999 FEW040 BKN180 16/04 Q1017 NOSIG
Conditions at: RKSS (SEOUL/KIMPO INTL, KR) observed 0400 UTC 19 April 2019
Temperature: 16.0°C (61°F)
Dewpoint: 4.0°C (39°F) [RH = 45%]
Pressure (altimeter): 30.03 inches Hg (1017.0 mb)
Winds: from the E (80 degrees) at 8 MPH (7 knots; 3.6 m/s)
Visibility: 6 or more miles (10+ km)
Ceiling: 18000 feet AGL
Clouds: few clouds at 4000 feet AGL
broken clouds at 18000 feet AGL
Weather: no significant weather observed at this time

METAR text: RKSS 190300Z 08009KT 040V110 9999 FEW040 BKN180 15/05 Q1017 NOSIG
Conditions at: RKSS (SEOUL/KIMPO INTL, KR) observed 0300 UTC 19 April 2019
Temperature: 15.0°C (59°F)
Dewpoint: 5.0°C (41°F) [RH = 51%]
Pressure (altimeter): 30.03 inches Hg (1017.0 mb)
Winds: from the E (80 degrees) at 10 MPH (9 knots; 4.6 m/s)
Visibility: 6 or more miles (10+ km)
Ceiling: 18000 feet AGL
Clouds: few clouds at 4000 feet AGL
broken clouds at 18000 feet AGL
Weather: no significant weather observed at this time

METAR text: RKSS 190200Z 09010KT 9999 FEW040 BKN180 14/05 Q1017 NOSIG
Conditions at: RKSS (SEOUL/KIMPO INTL, KR) observed 0200 UTC 19 April 2019
Temperature: 14.0°C (57°F)
Dewpoint: 5.0°C (41°F) [RH = 55%]
Pressure (altimeter): 30.03 inches Hg (1017.0 mb)
Winds: from the E (90 degrees) at 12 MPH (10 knots; 5.1 m/s)
Visibility: 6 or more miles (10+ km)
Ceiling: 18000 feet AGL
Clouds: few clouds at 4000 feet AGL
broken clouds at 18000 feet AGL
Weather: no significant weather observed at this time

METAR text: RKSS 190100Z 08009KT 050V110 9999 BKN040 OVC150 14/05 Q1018 NOSIG
Conditions at: RKSS (SEOUL/KIMPO INTL, KR) observed 0100 UTC 19 April 2019
Temperature: 14.0°C (57°F)
Dewpoint: 5.0°C (41°F) [RH = 55%]
Pressure (altimeter): 30.06 inches Hg (1018.0 mb)
Winds: from the E (80 degrees) at 10 MPH (9 knots; 4.6 m/s)
Visibility: 6 or more miles (10+ km)
Ceiling: 4000 feet AGL
Clouds: broken clouds at 4000 feet AGL
overcast cloud deck at 15000 feet AGL
Weather: no significant weather observed at this time

METAR text: RKSS 190000Z 07008KT 030V160 9999 BKN030 OVC120 13/05 Q1017 NOSIG
Conditions at: RKSS (SEOUL/KIMPO INTL, KR) observed 0000 UTC 19 April 2019
Temperature: 13.0°C (55°F)
Dewpoint: 5.0°C (41°F) [RH = 58%]
Pressure (altimeter): 30.03 inches Hg (1017.0 mb)
Winds: from the ENE (70 degrees) at 9 MPH (8 knots; 4.1 m/s)
Visibility: 6 or more miles (10+ km)
Ceiling: 3000 feet AGL
Clouds: broken clouds at 3000 feet AGL
overcast cloud deck at 12000 feet AGL
Weather: no significant weather observed at this time

METAR text: RKSS 182300Z 01005KT 7000 BKN030 OVC120 11/09 Q1017 NOSIG
Conditions at: RKSS (SEOUL/KIMPO INTL, KR) observed 2300 UTC 18 April 2019
Temperature: 11.0°C (52°F)
Dewpoint: 9.0°C (48°F) [RH = 87%]
Pressure (altimeter): 30.03 inches Hg (1017.0 mb)
Winds: from the N (10 degrees) at 6 MPH (5 knots; 2.6 m/s)
Visibility: 4 miles ( 7 km)
Ceiling: 3000 feet AGL
Clouds: broken clouds at 3000 feet AGL
overcast cloud deck at 12000 feet AGL
Weather: no significant weather observed at this time

METAR text: RKSS 182246Z 02004KT 6000 BKN030 OVC120 11/09 Q1017 NOSIG
Conditions at: RKSS (SEOUL/KIMPO INTL, KR) observed 2246 UTC 18 April 2019
Temperature: 11.0°C (52°F)
Dewpoint: 9.0°C (48°F) [RH = 87%]
Pressure (altimeter): 30.03 inches Hg (1017.0 mb)
Winds: from the NNE (20 degrees) at 5 MPH (4 knots; 2.1 m/s)
Visibility: 4 miles ( 6 km)
Ceiling: 3000 feet AGL
Clouds: broken clouds at 3000 feet AGL
overcast cloud deck at 12000 feet AGL
Weather: no significant weather observed at this time

METAR text: RKSS 182200Z 01003KT 3500 BR SCT010 BKN025 OVC120 10/09 Q1017 NOSIG
Conditions at: RKSS (SEOUL/KIMPO INTL, KR) observed 2200 UTC 18 April 2019
Temperature: 10.0°C (50°F)
Dewpoint: 9.0°C (48°F) [RH = 93%]
Pressure (altimeter): 30.03 inches Hg (1017.0 mb)
Winds: from the N (10 degrees) at 3 MPH (3 knots; 1.5 m/s)
Visibility: 2.17 miles (3.49 km)
Ceiling: 2500 feet AGL
Clouds: scattered clouds at 1000 feet AGL
broken clouds at 2500 feet AGL
overcast cloud deck at 12000 feet AGL
Weather: BR  (mist)

METAR text: RKSS 182100Z 35003KT 3000 BR FEW010 BKN025 09/08 Q1016 NOSIG
Conditions at: RKSS (SEOUL/KIMPO INTL, KR) observed 2100 UTC 18 April 2019
Temperature: 9.0°C (48°F)
Dewpoint: 8.0°C (46°F) [RH = 93%]
Pressure (altimeter): 30.00 inches Hg (1016.0 mb)
Winds: from the N (350 degrees) at 3 MPH (3 knots; 1.5 m/s)
Visibility: 1.86 miles (2.99 km)
Ceiling: 2500 feet AGL
Clouds: few clouds at 1000 feet AGL
broken clouds at 2500 feet AGL
Weather: BR  (mist)

METAR text: RKSS 182000Z 06002KT 2000 BR BKN005 09/09 Q1015 NOSIG
Conditions at: RKSS (SEOUL/KIMPO INTL, KR) observed 2000 UTC 18 April 2019
Temperature: 9.0°C (48°F)
Dewpoint: 9.0°C (48°F) [RH = 100%]
Pressure (altimeter): 29.97 inches Hg (1015.0 mb)
Winds: from the ENE (60 degrees) at 2 MPH (2 knots; 1.0 m/s)
Visibility: 1.24 miles (2.00 km)
Ceiling: 500 feet AGL
Clouds: broken clouds at 500 feet AGL
Weather: BR  (mist)

METAR text: RKSS 181900Z 03006KT 1200 R32L/1700D R32R/P2000N BR BKN005 10/09 Q1015 NOSIG
Conditions at: RKSS (SEOUL/KIMPO INTL, KR) observed 1900 UTC 18 April 2019
Temperature: 10.0°C (50°F)
Dewpoint: 9.0°C (48°F) [RH = 93%]
Pressure (altimeter): 29.97 inches Hg (1015.0 mb)
Winds: from the NNE (30 degrees) at 7 MPH (6 knots; 3.1 m/s)
Visibility: 0.75 miles (1.21 km)
Ceiling: 500 feet AGL
Clouds: broken clouds at 500 feet AGL
Weather: BR  (mist)

METAR text: RKSS 181800Z 02003KT 350V060 1800 BR BKN008 10/10 Q1015 NOSIG
Conditions at: RKSS (SEOUL/KIMPO INTL, KR) observed 1800 UTC 18 April 2019
Temperature: 10.0°C (50°F)
Dewpoint: 10.0°C (50°F) [RH = 100%]
Pressure (altimeter): 29.97 inches Hg (1015.0 mb)
Winds: from the NNE (20 degrees) at 3 MPH (3 knots; 1.5 m/s)
Visibility: 1.12 miles (1.80 km)
Ceiling: 800 feet AGL
Clouds: broken clouds at 800 feet AGL
Weather: BR  (mist)

METAR text: RKSS 181700Z 31004KT 1800 BR BKN008 10/09 Q1014 NOSIG
Conditions at: RKSS (SEOUL/KIMPO INTL, KR) observed 1700 UTC 18 April 2019
Temperature: 10.0°C (50°F)
Dewpoint: 9.0°C (48°F) [RH = 93%]
Pressure (altimeter): 29.94 inches Hg (1014.0 mb)
Winds: from the NW (310 degrees) at 5 MPH (4 knots; 2.1 m/s)
Visibility: 1.12 miles (1.80 km)
Ceiling: 800 feet AGL
Clouds: broken clouds at 800 feet AGL
Weather: BR  (mist)

METAR text: RKSS 181600Z 30004KT 2000 BR BKN009 09/09 Q1014 NOSIG
Conditions at: RKSS (SEOUL/KIMPO INTL, KR) observed 1600 UTC 18 April 2019
Temperature: 9.0°C (48°F)
Dewpoint: 9.0°C (48°F) [RH = 100%]
Pressure (altimeter): 29.94 inches Hg (1014.0 mb)
Winds: from the WNW (300 degrees) at 5 MPH (4 knots; 2.1 m/s)
Visibility: 1.24 miles (2.00 km)
Ceiling: 900 feet AGL
Clouds: broken clouds at 900 feet AGL
Weather: BR  (mist)

METAR text: RKSS 181500Z 31003KT 1700 BR SCT010 BKN025 07/07 Q1014 NOSIG
Conditions at: RKSS (SEOUL/KIMPO INTL, KR) observed 1500 UTC 18 April 2019
Temperature: 7.0°C (45°F)
Dewpoint: 7.0°C (45°F) [RH = 100%]
Pressure (altimeter): 29.94 inches Hg (1014.0 mb)
Winds: from the NW (310 degrees) at 3 MPH (3 knots; 1.5 m/s)
Visibility: 1.06 miles (1.71 km)
Ceiling: 2500 feet AGL
Clouds: scattered clouds at 1000 feet AGL
broken clouds at 2500 feet AGL
Weather: BR  (mist)

METAR text: RKSS 181400Z 29001KT 2000 0500W PRFG SCT010 BKN025 08/08 Q1014 NOSIG
Conditions at: RKSS (SEOUL/KIMPO INTL, KR) observed 1400 UTC 18 April 2019
Temperature: 8.0°C (46°F)
Dewpoint: 8.0°C (46°F) [RH = 100%]
Pressure (altimeter): 29.94 inches Hg (1014.0 mb)
Winds: from the WNW (290 degrees) at 1 MPH (1 knots; 0.5 m/s)
Visibility: 1.24 miles (2.00 km)
Ceiling: 2500 feet AGL
Clouds: scattered clouds at 1000 feet AGL
broken clouds at 2500 feet AGL
Weather: PRFG  (partial fog)

METAR text: RKSS 181300Z 30002KT 3500 0200W PRFG SCT010 BKN025 09/08 Q1014 NOSIG
Conditions at: RKSS (SEOUL/KIMPO INTL, KR) observed 1300 UTC 18 April 2019
Temperature: 9.0°C (48°F)
Dewpoint: 8.0°C (46°F) [RH = 93%]
Pressure (altimeter): 29.94 inches Hg (1014.0 mb)
Winds: from the WNW (300 degrees) at 2 MPH (2 knots; 1.0 m/s)
Visibility: 2.17 miles (3.49 km)
Ceiling: 2500 feet AGL
Clouds: scattered clouds at 1000 feet AGL
broken clouds at 2500 feet AGL
Weather: PRFG  (partial fog)

METAR text: RKSS 181200Z 35002KT 3500 BR SCT010 BKN025 09/09 Q1013 NOSIG
Conditions at: RKSS (SEOUL/KIMPO INTL, KR) observed 1200 UTC 18 April 2019
Temperature: 9.0°C (48°F)
Dewpoint: 9.0°C (48°F) [RH = 100%]
Pressure (altimeter): 29.91 inches Hg (1013.0 mb)
Winds: from the N (350 degrees) at 2 MPH (2 knots; 1.0 m/s)
Visibility: 2.17 miles (3.49 km)
Ceiling: 2500 feet AGL
Clouds: scattered clouds at 1000 feet AGL
broken clouds at 2500 feet AGL
Weather: BR  (mist)

METAR text: RKSS 181100Z 27001KT 4500 BR SCT010 BKN025 11/10 Q1013 NOSIG
Conditions at: RKSS (SEOUL/KIMPO INTL, KR) observed 1100 UTC 18 April 2019
Temperature: 11.0°C (52°F)
Dewpoint: 10.0°C (50°F) [RH = 94%]
Pressure (altimeter): 29.91 inches Hg (1013.0 mb)
Winds: from the W (270 degrees) at 1 MPH (1 knots; 0.5 m/s)
Visibility: 2.80 miles (4.51 km)
Ceiling: 2500 feet AGL
Clouds: scattered clouds at 1000 feet AGL
broken clouds at 2500 feet AGL
Weather: BR  (mist)

METAR text: RKSS 181000Z 29005KT 4500 BR BKN007 BKN025 12/10 Q1012 NOSIG
Conditions at: RKSS (SEOUL/KIMPO INTL, KR) observed 1000 UTC 18 April 2019
Temperature: 12.0°C (54°F)
Dewpoint: 10.0°C (50°F) [RH = 88%]
Pressure (altimeter): 29.88 inches Hg (1012.0 mb)
Winds: from the WNW (290 degrees) at 6 MPH (5 knots; 2.6 m/s)
Visibility: 2.80 miles (4.51 km)
Ceiling: 700 feet AGL
Clouds: broken clouds at 700 feet AGL
broken clouds at 2500 feet AGL
Weather: BR  (mist)

METAR text: RKSS 180900Z 25005KT 210V290 6000 SCT010 BKN025 12/10 Q1011 NOSIG
Conditions at: RKSS (SEOUL/KIMPO INTL, KR) observed 0900 UTC 18 April 2019
Temperature: 12.0°C (54°F)
Dewpoint: 10.0°C (50°F) [RH = 88%]
Pressure (altimeter): 29.85 inches Hg (1011.0 mb)
Winds: from the WSW (250 degrees) at 6 MPH (5 knots; 2.6 m/s)
Visibility: 4 miles ( 6 km)
Ceiling: 2500 feet AGL
Clouds: scattered clouds at 1000 feet AGL
broken clouds at 2500 feet AGL
Weather: no significant weather observed at this time

METAR text: RKSS 180800Z 27006KT 230V310 6000 SCT010 BKN025 13/10 Q1011 NOSIG
Conditions at: RKSS (SEOUL/KIMPO INTL, KR) observed 0800 UTC 18 April 2019
Temperature: 13.0°C (55°F)
Dewpoint: 10.0°C (50°F) [RH = 82%]
Pressure (altimeter): 29.85 inches Hg (1011.0 mb)
Winds: from the W (270 degrees) at 7 MPH (6 knots; 3.1 m/s)
Visibility: 4 miles ( 6 km)
Ceiling: 2500 feet AGL
Clouds: scattered clouds at 1000 feet AGL
broken clouds at 2500 feet AGL
Weather: no significant weather observed at this time

METAR text: RKSS 180700Z 23010KT 7000 SCT010 BKN025 13/10 Q1011 NOSIG
Conditions at: RKSS (SEOUL/KIMPO INTL, KR) observed 0700 UTC 18 April 2019
Temperature: 13.0°C (55°F)
Dewpoint: 10.0°C (50°F) [RH = 82%]
Pressure (altimeter): 29.85 inches Hg (1011.0 mb)
Winds: from the SW (230 degrees) at 12 MPH (10 knots; 5.1 m/s)
Visibility: 4 miles ( 7 km)
Ceiling: 2500 feet AGL
Clouds: scattered clouds at 1000 feet AGL
broken clouds at 2500 feet AGL
Weather: no significant weather observed at this time

Forecast for: RKSS (SEOUL/KIMPO INTL, KR)
Text: TAF RKSS 191700Z 1918/2024 15005KT 7000 FEW010 SCT030 TN08/1920Z TX20/2006Z TN10/2021Z
Forecast period: 1800 UTC 19 April 2019 to 0300 UTC 20 April 2019
Forecast type: FROM: standard forecast or significant change
Winds: from the SSE (150 degrees) at 6 MPH (5 knots; 2.6 m/s)
Visibility: 4 miles (7 km)
Ceiling: at least 12,000 feet AGL
Clouds: few clouds at 1000 feet AGL
scattered clouds at 3000 feet AGL
Weather: no significant weather forecast for this period
Text: TEMPO 1920/1923 FEW010 BKN030
Forecast period: 2000 to 2300 UTC 19 April 2019
Forecast type: TEMPORARY: The following changes expected for less than half the time period
Visibility: missing
Ceiling: 3000 feet AGL
Clouds: few clouds at 1000 feet AGL
broken clouds at 3000 feet AGL
Weather: no significant weather forecast for this period
Text: BECMG 2003/2004 27007KT
Forecast period: 0300 to 1200 UTC 20 April 2019
Forecast type: BECOMING: Conditions expected to become as follows by 0400 UTC 20 April 2019
Winds: from the W (270 degrees) at 8 MPH (7 knots; 3.6 m/s)
Visibility: 4 miles (7 km)
Ceiling: at least 12,000 feet AGL
Clouds: few clouds at 1000 feet AGL
scattered clouds at 3000 feet AGL
Weather: no significant weather forecast for this period
Text: BECMG 2012/2013 21005KT FEW010 BKN025
Forecast period: 1200 UTC 20 April 2019 to 0000 UTC 21 April 2019
Forecast type: BECOMING: Conditions expected to become as follows by 1300 UTC 20 April 2019
Winds: from the SSW (210 degrees) at 6 MPH (5 knots; 2.6 m/s)
Visibility: 4 miles (7 km)
Ceiling: 2500 feet AGL
Clouds: few clouds at 1000 feet AGL
broken clouds at 2500 feet AGL
Weather: no significant weather forecast for this period
Text: TEMPO 2015/2016 -RA
Forecast period: 1500 to 1600 UTC 20 April 2019
Forecast type: TEMPORARY: The following changes expected for less than half the time period
Visibility: missing
Ceiling: unknown
Clouds: missing
Weather: -RA  (light rain)
Text: TEMPO 2017/2023 3500 BR
Forecast period: 1700 to 2300 UTC 20 April 2019
Forecast type: TEMPORARY: The following changes expected for less than half the time period
Visibility: 2.17 miles (3.49 km)
Ceiling: unknown
Clouds: missing
Weather: BR  (mist)